createdAt,value
2019-04-21T00:00:31.852Z,10.73
2019-04-21T00:01:16.260Z,9.47
2019-04-21T00:01:59.554Z,9.27
2019-04-21T00:02:42.567Z,10.43
2019-04-21T00:03:25.695Z,11.30
2019-04-21T00:04:11.927Z,12.30
2019-04-21T00:04:52.026Z,11.60
2019-04-21T00:05:38.600Z,10.53
2019-04-21T00:06:25.157Z,11.37
2019-04-21T00:07:05.790Z,11.07
2019-04-21T00:07:36.286Z,12.63
2019-04-21T00:08:27.122Z,11.93
2019-04-21T00:09:09.819Z,11.93
2019-04-21T00:09:45.581Z,10.90
2019-04-21T00:10:28.516Z,10.17
2019-04-21T00:11:02.954Z,10.53
2019-04-21T00:11:49.611Z,10.83
2019-04-21T00:12:22.620Z,9.40
2019-04-21T00:13:01.936Z,10.10
2019-04-21T00:13:42.700Z,10.70
2019-04-21T00:14:18.484Z,10.07
2019-04-21T00:14:59.416Z,10.30
2019-04-21T00:15:37.863Z,11.07
2019-04-21T00:16:11.950Z,9.87
2019-04-21T00:17:00.544Z,9.80
2019-04-21T00:17:36.931Z,9.20
2019-04-21T00:18:42.961Z,9.00
2019-04-21T00:19:30.594Z,10.30
2019-04-21T00:20:19.371Z,9.70
2019-04-21T00:20:52.718Z,9.40
2019-04-21T00:21:39.554Z,9.53
2019-04-21T00:22:31.566Z,10.07
2019-04-21T00:23:13.045Z,9.87
2019-04-21T00:23:55.275Z,10.60
2019-04-21T00:24:28.890Z,10.30
2019-04-21T00:25:14.044Z,9.67
2019-04-21T00:25:48.772Z,10.17
2019-04-21T00:26:36.492Z,9.03
2019-04-21T00:27:17.445Z,10.83
2019-04-21T00:27:59.808Z,9.87
2019-04-21T00:28:42.579Z,9.40
2019-04-21T00:29:27.069Z,9.93
2019-04-21T00:30:03.396Z,9.10
2019-04-21T00:30:44.332Z,10.87
2019-04-21T00:31:24.689Z,10.10
2019-04-21T00:32:03.037Z,9.83
2019-04-21T00:32:39.327Z,10.10
2019-04-21T00:33:17.180Z,11.07
2019-04-21T00:33:49.763Z,10.33
2019-04-21T00:34:31.952Z,10.30
2019-04-21T00:35:18.774Z,10.50
2019-04-21T00:36:02.058Z,11.10
2019-04-21T00:36:51.522Z,9.10
2019-04-21T00:37:42.604Z,10.93
2019-04-21T00:38:25.172Z,10.17
2019-04-21T00:39:15.765Z,11.97
2019-04-21T00:40:30.246Z,11.20
2019-04-21T00:41:13.422Z,11.53
2019-04-21T00:41:56.235Z,11.40
2019-04-21T00:42:34.242Z,10.90
2019-04-21T00:43:13.608Z,11.40
2019-04-21T00:43:51.913Z,10.10
2019-04-21T00:44:27.456Z,10.27
2019-04-21T00:45:13.823Z,10.33
2019-04-21T00:45:50.659Z,9.33
2019-04-21T00:46:32.325Z,11.57
2019-04-21T00:47:16.907Z,10.77
2019-04-21T00:48:05.938Z,10.27
2019-04-21T00:48:45.897Z,10.80
2019-04-21T00:49:15.245Z,11.43
2019-04-21T00:50:00.807Z,10.50
2019-04-21T00:50:51.031Z,12.47
2019-04-21T00:51:45.655Z,9.70
2019-04-21T00:52:35.348Z,10.97
2019-04-21T00:53:05.603Z,11.03
2019-04-21T00:53:57.897Z,10.90
2019-04-21T00:54:41.539Z,12.03
2019-04-21T00:55:38.756Z,11.87
2019-04-21T00:56:15.297Z,9.73
2019-04-21T00:57:03.679Z,11.80
2019-04-21T00:57:49.874Z,11.10
2019-04-21T00:58:22.487Z,11.93
2019-04-21T00:59:02.396Z,10.90
2019-04-21T00:59:48.318Z,12.17
2019-04-21T01:00:24.121Z,11.23
2019-04-21T01:01:04.399Z,10.97
2019-04-21T01:01:46.235Z,10.63
2019-04-21T01:02:27.306Z,12.63
2019-04-21T01:03:08.399Z,11.83
2019-04-21T01:03:53.059Z,11.20
2019-04-21T01:04:30.729Z,11.90
2019-04-21T01:05:18.536Z,12.07
2019-04-21T01:06:38.152Z,11.00
2019-04-21T01:07:20.720Z,11.80
2019-04-21T01:08:01.426Z,11.13
2019-04-21T01:08:41.334Z,12.93
2019-04-21T01:09:28.978Z,11.80
2019-04-21T01:10:12.199Z,12.60
2019-04-21T01:10:49.232Z,13.00
2019-04-21T01:11:41.801Z,13.23
2019-04-21T01:12:23.487Z,12.20
2019-04-21T01:13:02.966Z,12.03
2019-04-21T01:13:44.066Z,12.77
2019-04-21T01:14:30.080Z,12.53
2019-04-21T01:15:09.150Z,12.70
2019-04-21T01:15:49.030Z,11.67
2019-04-21T01:16:28.852Z,14.33
2019-04-21T01:17:13.052Z,14.03
2019-04-21T01:17:51.916Z,13.10
2019-04-21T01:18:32.490Z,12.70
2019-04-21T01:19:12.337Z,10.70
2019-04-21T01:19:44.089Z,13.23
2019-04-21T01:20:17.167Z,12.80
2019-04-21T01:20:51.015Z,11.53
2019-04-21T01:21:32.306Z,13.90
2019-04-21T01:22:10.362Z,12.07
2019-04-21T01:22:51.584Z,13.67
2019-04-21T01:23:29.983Z,13.20
2019-04-21T01:24:18.862Z,12.60
2019-04-21T01:25:01.732Z,13.30
2019-04-21T01:25:55.696Z,11.90
2019-04-21T01:26:37.196Z,12.20
2019-04-21T01:27:21.396Z,13.13
2019-04-21T01:28:03.899Z,11.77
2019-04-21T01:28:49.559Z,13.03
2019-04-21T01:29:41.487Z,13.33
2019-04-21T01:30:23.728Z,11.70
2019-04-21T01:31:07.491Z,12.20
2019-04-21T01:31:42.300Z,12.90
2019-04-21T01:32:29.667Z,12.23
2019-04-21T01:33:12.508Z,12.93
2019-04-21T01:33:50.947Z,11.77
2019-04-21T01:34:33.005Z,12.13
2019-04-21T01:35:17.851Z,11.27
2019-04-21T01:35:53.910Z,11.67
2019-04-21T01:36:34.778Z,11.10
2019-04-21T01:37:15.856Z,12.37
2019-04-21T01:38:03.076Z,11.13
2019-04-21T01:38:49.274Z,12.20
2019-04-21T01:39:29.403Z,12.30
2019-04-21T01:40:16.238Z,12.57
2019-04-21T01:40:56.739Z,11.77
2019-04-21T01:41:35.564Z,11.40
2019-04-21T01:42:09.476Z,11.60
2019-04-21T01:43:23.452Z,11.90
2019-04-21T01:44:07.526Z,12.50
2019-04-21T01:44:56.498Z,10.47
2019-04-21T01:45:26.490Z,10.70
2019-04-21T01:46:06.726Z,10.70
2019-04-21T01:46:45.407Z,9.90
2019-04-21T01:47:24.988Z,10.00
2019-04-21T01:48:06.646Z,12.20
2019-04-21T01:48:42.781Z,9.90
2019-04-21T01:49:24.496Z,9.53
2019-04-21T01:49:59.255Z,9.10
2019-04-21T01:50:51.169Z,9.50
2019-04-21T01:51:28.359Z,10.70
2019-04-21T01:52:34.524Z,9.93
2019-04-21T01:53:12.867Z,9.60
2019-04-21T01:53:57.946Z,9.43
2019-04-21T01:54:55.542Z,9.43
2019-04-21T01:55:45.615Z,8.37
2019-04-21T01:56:56.966Z,8.13
2019-04-21T01:57:55.287Z,9.03
2019-04-21T01:58:29.005Z,8.67
2019-04-21T01:59:09.014Z,8.70
2019-04-21T01:59:51.177Z,8.43
2019-04-21T02:01:03.246Z,9.07
2019-04-21T02:01:46.814Z,8.17
2019-04-21T02:02:29.325Z,9.00
2019-04-21T02:03:31.499Z,8.37
2019-04-21T02:04:37.194Z,8.20
2019-04-21T02:05:18.919Z,8.80
2019-04-21T02:06:02.965Z,9.70
2019-04-21T02:06:33.608Z,8.03
2019-04-21T02:07:15.094Z,9.20
2019-04-21T02:07:58.052Z,9.10
2019-04-21T02:08:37.419Z,8.47
2019-04-21T02:09:23.225Z,9.00
2019-04-21T02:10:21.976Z,8.33
2019-04-21T02:11:03.699Z,8.57
2019-04-21T02:11:44.337Z,9.53
2019-04-21T02:12:43.268Z,10.10
2019-04-21T02:13:17.633Z,8.97
2019-04-21T02:14:20.341Z,9.10
2019-04-21T02:15:01.098Z,9.40
2019-04-21T02:15:42.256Z,9.60
2019-04-21T02:16:18.798Z,8.63
2019-04-21T02:16:59.281Z,8.43
2019-04-21T02:17:43.382Z,9.80
2019-04-21T02:18:24.961Z,9.43
2019-04-21T02:18:58.570Z,8.57
2019-04-21T02:19:42.206Z,9.83
2019-04-21T02:20:18.261Z,10.07
2019-04-21T02:20:59.307Z,9.73
2019-04-21T02:21:50.422Z,8.63
2019-04-21T02:22:46.176Z,7.70
2019-04-21T02:23:29.868Z,9.57
2019-04-21T02:24:52.097Z,7.70
2019-04-21T02:25:26.268Z,8.90
2019-04-21T02:26:09.831Z,8.13
2019-04-21T02:26:55.961Z,7.87
2019-04-21T02:27:37.650Z,7.70
2019-04-21T02:28:20.789Z,9.10
2019-04-21T02:29:00.122Z,8.20
2019-04-21T02:29:41.247Z,9.43
2019-04-21T02:30:36.452Z,8.10
2019-04-21T02:31:20.446Z,8.13
2019-04-21T02:32:00.311Z,9.10
2019-04-21T02:32:35.697Z,9.20
2019-04-21T02:33:25.880Z,9.23
2019-04-21T02:33:58.610Z,9.07
2019-04-21T02:34:59.846Z,8.30
2019-04-21T02:35:30.616Z,10.23
2019-04-21T02:36:22.870Z,9.57
2019-04-21T02:36:53.404Z,8.70
2019-04-21T02:37:38.357Z,9.90
2019-04-21T02:39:02.343Z,10.60
2019-04-21T02:39:31.265Z,8.53
2019-04-21T02:40:47.827Z,9.20
2019-04-21T02:41:30.778Z,8.00
2019-04-21T02:43:03.226Z,8.83
2019-04-21T02:43:25.557Z,7.60
2019-04-21T02:44:51.436Z,8.70
2019-04-21T02:46:23.903Z,8.63
2019-04-21T02:47:24.197Z,8.30
2019-04-21T02:47:48.603Z,8.00
2019-04-21T02:48:27.890Z,8.50
2019-04-21T02:49:17.195Z,8.57
2019-04-21T02:50:34.015Z,10.30
2019-04-21T02:51:08.686Z,9.93
2019-04-21T02:52:43.893Z,9.80
2019-04-21T02:53:31.306Z,10.00
2019-04-21T02:55:22.204Z,10.10
2019-04-21T02:56:09.624Z,11.57
2019-04-21T02:56:52.901Z,9.37
2019-04-21T02:58:16.050Z,10.27
2019-04-21T02:59:16.998Z,9.40
2019-04-21T03:00:16.621Z,9.77
2019-04-21T03:01:24.159Z,9.60
2019-04-21T03:02:17.057Z,9.10
2019-04-21T03:03:13.920Z,9.17
2019-04-21T03:04:24.745Z,9.23
2019-04-21T03:05:20.327Z,10.23
2019-04-21T03:06:29.177Z,9.73
2019-04-21T03:07:17.765Z,11.00
2019-04-21T03:08:09.271Z,8.40
2019-04-21T03:08:50.655Z,9.13
2019-04-21T03:09:35.766Z,8.33
2019-04-21T03:10:10.768Z,8.43
2019-04-21T03:10:53.602Z,8.43
2019-04-21T03:11:24.459Z,8.83
2019-04-21T03:12:45.924Z,10.20
2019-04-21T03:13:44.723Z,9.73
2019-04-21T03:14:16.797Z,9.30
2019-04-21T03:15:04.336Z,8.20
2019-04-21T03:16:03.116Z,9.20
2019-04-21T03:17:10.092Z,8.60
2019-04-21T03:17:56.934Z,8.53
2019-04-21T03:18:40.672Z,7.90
2019-04-21T03:19:37.901Z,8.40
2019-04-21T03:20:07.150Z,8.30
2019-04-21T03:21:03.098Z,9.27
2019-04-21T03:21:29.899Z,9.80
2019-04-21T03:23:00.090Z,8.80
2019-04-21T03:24:31.201Z,8.30
2019-04-21T03:25:23.400Z,8.53
2019-04-21T03:26:00.787Z,7.97
2019-04-21T03:26:54.392Z,9.17
2019-04-21T03:28:39.736Z,8.60
2019-04-21T03:31:24.038Z,8.57
2019-04-21T03:32:04.160Z,7.73
2019-04-21T03:34:29.271Z,7.50
2019-04-21T03:35:15.241Z,6.90
2019-04-21T03:36:58.622Z,6.17
2019-04-21T03:38:17.195Z,6.17
2019-04-21T03:38:49.173Z,5.90
2019-04-21T03:40:44.355Z,8.55
2019-04-21T03:42:19.964Z,7.93
2019-04-21T03:43:34.878Z,8.00
2019-04-21T03:44:22.995Z,7.57
2019-04-21T03:44:55.474Z,6.83
2019-04-21T03:45:38.856Z,7.80
2019-04-21T03:46:30.202Z,8.67
2019-04-21T03:47:06.971Z,7.70
2019-04-21T03:47:44.867Z,8.67
2019-04-21T03:48:26.760Z,9.07
2019-04-21T03:49:20.763Z,8.07
2019-04-21T03:49:54.553Z,8.20
2019-04-21T03:50:33.122Z,8.20
2019-04-21T03:51:32.976Z,8.10
2019-04-21T03:52:09.037Z,8.60
2019-04-21T03:52:45.858Z,7.40
2019-04-21T03:53:22.562Z,8.33
2019-04-21T03:53:53.459Z,7.20
2019-04-21T03:55:25.173Z,8.00
2019-04-21T03:56:53.456Z,7.67
2019-04-21T03:57:19.797Z,8.00
2019-04-21T03:58:47.379Z,6.57
2019-04-21T03:59:12.676Z,7.33
2019-04-21T04:00:16.102Z,8.17
2019-04-21T04:01:58.080Z,6.80
2019-04-21T04:02:55.280Z,6.87
2019-04-21T04:04:15.554Z,6.67
2019-04-21T04:06:03.506Z,7.43
2019-04-21T04:10:42.753Z,7.10
2019-04-21T04:11:36.006Z,6.33
2019-04-21T04:13:37.722Z,6.17
2019-04-21T04:15:41.184Z,6.13
2019-04-21T04:17:40.702Z,6.60
2019-04-21T04:18:40.314Z,6.93
2019-04-21T04:19:09.590Z,7.20
2019-04-21T04:20:13.842Z,6.57
2019-04-21T04:20:39.832Z,6.13
2019-04-21T04:21:37.192Z,6.37
2019-04-21T04:24:07.252Z,6.53
2019-04-21T04:24:50.164Z,5.97
2019-04-21T04:25:43.016Z,6.83
2019-04-21T04:26:09.092Z,6.70
2019-04-21T04:26:53.610Z,6.57
2019-04-21T04:27:53.805Z,6.80
2019-04-21T04:28:25.677Z,6.90
2019-04-21T04:29:08.850Z,6.37
2019-04-21T04:31:15.952Z,5.57
2019-04-21T04:31:42.750Z,5.80
2019-04-21T04:32:42.014Z,5.90
2019-04-21T04:33:20.371Z,6.73
2019-04-21T04:34:04.512Z,6.93
2019-04-21T04:34:51.712Z,6.83
2019-04-21T04:36:13.103Z,6.40
2019-04-21T04:37:32.106Z,6.57
2019-04-21T04:38:24.214Z,6.97
2019-04-21T04:39:25.624Z,7.10
2019-04-21T04:40:13.424Z,6.97
2019-04-21T04:41:06.348Z,6.03
2019-04-21T04:42:14.576Z,6.67
2019-04-21T04:43:07.768Z,6.77
2019-04-21T04:43:42.183Z,6.03
2019-04-21T04:44:23.188Z,5.90
2019-04-21T04:45:46.384Z,6.37
2019-04-21T04:46:27.040Z,6.80
2019-04-21T04:47:56.704Z,6.37
2019-04-21T04:48:28.430Z,6.50
2019-04-21T04:49:27.880Z,7.00
2019-04-21T04:49:53.464Z,6.63
2019-04-21T04:50:45.518Z,7.07
2019-04-21T04:51:12.908Z,6.73
2019-04-21T04:52:07.823Z,7.20
2019-04-21T04:53:32.709Z,6.20
2019-04-21T04:54:03.848Z,7.20
2019-04-21T04:55:29.590Z,6.50
2019-04-21T04:56:10.472Z,6.40
2019-04-21T04:57:03.216Z,6.10
2019-04-21T04:57:40.103Z,7.60
2019-04-21T04:58:11.118Z,7.10
2019-04-21T04:59:19.399Z,6.50
2019-04-21T04:59:43.122Z,6.17
2019-04-21T05:00:28.119Z,6.90
2019-04-21T05:01:48.530Z,7.33
2019-04-21T05:02:29.866Z,7.00
2019-04-21T05:03:00.999Z,7.43
2019-04-21T05:04:00.356Z,6.43
2019-04-21T05:04:40.362Z,7.10
2019-04-21T05:06:37.188Z,7.63
2019-04-21T05:07:07.129Z,6.70
2019-04-21T05:08:34.461Z,6.37
2019-04-21T05:09:10.946Z,6.80
2019-04-21T05:09:52.377Z,6.47
2019-04-21T05:10:47.674Z,7.37
2019-04-21T05:11:37.706Z,6.77
2019-04-21T05:11:55.519Z,7.70
2019-04-21T05:12:35.890Z,7.40
2019-04-21T05:13:29.224Z,6.40
2019-04-21T05:14:16.750Z,7.10
2019-04-21T05:14:46.751Z,7.87
2019-04-21T05:15:19.403Z,7.10
2019-04-21T05:16:13.774Z,7.40
2019-04-21T05:16:46.366Z,6.90
2019-04-21T05:17:28.837Z,6.83
2019-04-21T05:18:10.382Z,7.20
2019-04-21T05:18:54.362Z,7.10
2019-04-21T05:19:41.928Z,7.33
2019-04-21T05:20:13.361Z,7.70
2019-04-21T05:20:53.306Z,7.57
2019-04-21T05:22:19.624Z,7.73
2019-04-21T05:22:53.284Z,6.60
2019-04-21T05:23:31.652Z,6.43
2019-04-21T05:24:14.999Z,7.27
2019-04-21T05:24:53.887Z,7.40
2019-04-21T05:25:31.150Z,7.10
2019-04-21T05:26:06.858Z,6.07
2019-04-21T05:26:58.448Z,7.13
2019-04-21T05:27:38.638Z,8.30
2019-04-21T05:28:15.258Z,8.50
2019-04-21T05:29:01.738Z,8.20
2019-04-21T05:30:01.332Z,7.57
2019-04-21T05:30:50.795Z,7.23
2019-04-21T05:32:12.827Z,6.77
2019-04-21T05:33:00.314Z,6.53
2019-04-21T05:33:59.064Z,6.97
2019-04-21T05:34:37.405Z,7.00
2019-04-21T05:35:43.883Z,7.23
2019-04-21T05:36:45.885Z,6.90
2019-04-21T05:37:47.409Z,7.90
2019-04-21T05:38:50.273Z,6.90
2019-04-21T05:39:43.480Z,7.70
2019-04-21T05:40:31.841Z,8.00
2019-04-21T05:41:13.072Z,7.20
2019-04-21T05:41:50.847Z,7.70
2019-04-21T05:42:35.323Z,7.70
2019-04-21T05:43:28.427Z,7.60
2019-04-21T05:44:06.830Z,7.20
2019-04-21T05:44:54.583Z,7.17
2019-04-21T05:45:26.857Z,9.10
2019-04-21T05:46:10.606Z,8.30
2019-04-21T05:47:03.820Z,7.60
2019-04-21T05:48:59.311Z,7.50
2019-04-21T05:49:45.552Z,6.63
2019-04-21T05:50:23.768Z,7.53
2019-04-21T05:51:02.091Z,7.97
2019-04-21T05:51:59.751Z,7.17
2019-04-21T05:52:51.874Z,7.30
2019-04-21T05:53:36.312Z,7.33
2019-04-21T05:54:24.521Z,8.20
2019-04-21T05:56:17.668Z,7.77
2019-04-21T05:56:58.111Z,7.97
2019-04-21T05:58:37.792Z,7.70
2019-04-21T05:59:13.727Z,7.63
2019-04-21T06:00:01.277Z,7.03
2019-04-21T06:01:06.343Z,7.33
2019-04-21T06:02:14.031Z,7.57
2019-04-21T06:02:56.068Z,7.60
2019-04-21T06:03:36.946Z,7.10
2019-04-21T06:04:16.987Z,6.77
2019-04-21T06:05:14.258Z,7.60
2019-04-21T06:05:40.013Z,7.27
2019-04-21T06:06:23.150Z,6.33
2019-04-21T06:06:56.896Z,7.33
2019-04-21T06:07:38.230Z,6.70
2019-04-21T06:08:23.489Z,6.33
2019-04-21T06:08:53.677Z,7.90
2019-04-21T06:09:34.923Z,8.20
2019-04-21T06:10:20.605Z,7.40
2019-04-21T06:11:00.239Z,7.40
2019-04-21T06:11:37.821Z,7.50
2019-04-21T06:12:20.878Z,7.10
2019-04-21T06:13:07.966Z,6.73
2019-04-21T06:13:48.139Z,8.23
2019-04-21T06:14:30.615Z,7.33
2019-04-21T06:15:06.987Z,8.10
2019-04-21T06:15:54.762Z,7.43
2019-04-21T06:16:30.218Z,7.27
2019-04-21T06:17:08.822Z,8.03
2019-04-21T06:17:54.386Z,7.80
2019-04-21T06:18:34.627Z,7.50
2019-04-21T06:19:15.070Z,9.93
2019-04-21T06:20:27.216Z,9.30
2019-04-21T06:21:10.815Z,7.73
2019-04-21T06:21:50.880Z,7.30
2019-04-21T06:22:28.866Z,7.60
2019-04-21T06:23:21.332Z,7.33
2019-04-21T06:24:01.025Z,7.90
2019-04-21T06:24:51.664Z,8.40
2019-04-21T06:25:44.657Z,7.47
2019-04-21T06:26:27.013Z,7.63
2019-04-21T06:27:00.403Z,6.70
2019-04-21T06:27:32.767Z,6.80
2019-04-21T06:28:13.368Z,6.50
2019-04-21T06:28:50.492Z,8.00
2019-04-21T06:29:42.080Z,7.50
2019-04-21T06:30:10.410Z,6.80
2019-04-21T06:31:05.680Z,6.97
2019-04-21T06:33:04.900Z,7.23
2019-04-21T06:34:45.596Z,7.07
2019-04-21T06:35:48.403Z,7.83
2019-04-21T06:37:40.571Z,6.57
2019-04-21T06:38:08.412Z,6.80
2019-04-21T06:39:51.659Z,6.80
2019-04-21T06:40:25.918Z,7.53
2019-04-21T06:40:59.401Z,7.97
2019-04-21T06:41:39.457Z,8.07
2019-04-21T06:43:15.786Z,7.60
2019-04-21T06:43:17.987Z,7.40
2019-04-21T06:44:33.598Z,7.53
2019-04-21T06:45:12.834Z,7.63
2019-04-21T06:46:10.983Z,7.10
2019-04-21T06:47:23.217Z,6.27
2019-04-21T06:48:01.130Z,6.50
2019-04-21T06:48:40.645Z,7.63
2019-04-21T06:49:17.313Z,7.20
2019-04-21T06:50:18.572Z,7.07
2019-04-21T06:50:46.654Z,6.97
2019-04-21T06:51:30.803Z,6.83
2019-04-21T06:52:33.427Z,7.10
2019-04-21T06:53:37.733Z,8.30
2019-04-21T06:54:30.529Z,7.10
2019-04-21T06:54:57.162Z,7.30
2019-04-21T06:55:32.358Z,6.80
2019-04-21T06:56:15.462Z,7.17
2019-04-21T06:56:56.612Z,6.00
2019-04-21T06:57:44.423Z,6.77
2019-04-21T06:58:18.337Z,7.23
2019-04-21T06:59:01.449Z,6.93
2019-04-21T06:59:40.227Z,7.43
2019-04-21T07:00:22.685Z,6.27
2019-04-21T07:01:05.506Z,8.23
2019-04-21T07:01:54.721Z,7.13
2019-04-21T07:02:49.340Z,8.00
2019-04-21T07:03:20.660Z,6.97
2019-04-21T07:04:13.369Z,6.93
2019-04-21T07:04:51.084Z,7.37
2019-04-21T07:05:26.254Z,7.63
2019-04-21T07:06:09.455Z,7.90
2019-04-21T07:06:50.068Z,8.53
2019-04-21T07:07:33.858Z,7.40
2019-04-21T07:08:23.501Z,7.30
2019-04-21T07:09:03.191Z,7.77
2019-04-21T07:09:31.841Z,8.30
2019-04-21T07:10:14.141Z,8.10
2019-04-21T07:11:03.989Z,7.63
2019-04-21T07:11:43.831Z,7.73
2019-04-21T07:12:32.295Z,7.57
2019-04-21T07:13:15.318Z,7.47
2019-04-21T07:14:13.601Z,7.83
2019-04-21T07:14:43.774Z,6.77
2019-04-21T07:15:25.356Z,7.87
2019-04-21T07:16:10.774Z,7.50
2019-04-21T07:16:52.880Z,7.80
2019-04-21T07:18:04.419Z,7.87
2019-04-21T07:18:51.274Z,7.67
2019-04-21T07:19:33.343Z,6.80
2019-04-21T07:20:08.010Z,7.47
2019-04-21T07:20:49.195Z,8.33
2019-04-21T07:21:30.697Z,7.50
2019-04-21T07:22:14.602Z,8.27
2019-04-21T07:22:59.027Z,7.23
2019-04-21T07:23:30.281Z,7.30
2019-04-21T07:24:14.677Z,7.37
2019-04-21T07:24:51.942Z,8.00
2019-04-21T07:25:38.497Z,8.50
2019-04-21T07:26:19.407Z,9.07
2019-04-21T07:27:02.620Z,8.57
2019-04-21T07:27:43.407Z,9.17
2019-04-21T07:28:28.486Z,8.17
2019-04-21T07:29:09.075Z,7.37
2019-04-21T07:29:55.099Z,8.20
2019-04-21T07:31:17.785Z,9.03
2019-04-21T07:31:59.260Z,8.03
2019-04-21T07:32:36.327Z,8.57
2019-04-21T07:33:41.278Z,8.87
2019-04-21T07:33:57.529Z,8.37
2019-04-21T07:34:38.507Z,8.07
2019-04-21T07:35:25.046Z,7.50
2019-04-21T07:36:09.581Z,6.50
2019-04-21T07:36:52.341Z,6.83
2019-04-21T07:37:25.524Z,8.57
2019-04-21T07:38:04.357Z,7.57
2019-04-21T07:38:50.280Z,8.50
2019-04-21T07:39:35.564Z,7.20
2019-04-21T07:40:14.146Z,7.70
2019-04-21T07:40:55.891Z,7.77
2019-04-21T07:41:38.797Z,8.03
2019-04-21T07:42:18.541Z,7.70
2019-04-21T07:42:58.843Z,7.63
2019-04-21T07:43:44.351Z,7.87
2019-04-21T07:44:19.560Z,8.30
2019-04-21T07:44:59.343Z,8.20
2019-04-21T07:45:40.520Z,8.93
2019-04-21T07:46:21.352Z,7.03
2019-04-21T07:47:06.456Z,7.30
2019-04-21T07:47:53.495Z,7.33
2019-04-21T07:48:37.600Z,8.00
2019-04-21T07:49:39.952Z,7.33
2019-04-21T07:50:31.723Z,6.30
2019-04-21T07:51:31.601Z,7.93
2019-04-21T07:52:34.921Z,8.27
2019-04-21T07:53:22.579Z,7.50
2019-04-21T07:54:01.784Z,7.60
2019-04-21T07:54:50.994Z,8.80
2019-04-21T07:55:45.829Z,8.27
2019-04-21T07:56:28.323Z,7.40
2019-04-21T07:57:18.779Z,8.53
2019-04-21T07:58:21.193Z,7.90
2019-04-21T07:58:53.829Z,7.47
2019-04-21T07:59:39.620Z,7.40
2019-04-21T08:00:29.615Z,8.40
2019-04-21T08:01:12.046Z,8.70
2019-04-21T08:01:30.829Z,8.87
2019-04-21T08:02:17.054Z,7.80
2019-04-21T08:02:56.760Z,8.03
2019-04-21T08:03:38.876Z,7.33
2019-04-21T08:04:37.880Z,8.20
2019-04-21T08:05:09.999Z,8.20
2019-04-21T08:06:28.277Z,8.57
2019-04-21T08:07:05.084Z,7.23
2019-04-21T08:07:56.048Z,7.50
2019-04-21T08:08:28.169Z,7.60
2019-04-21T08:09:08.942Z,7.43
2019-04-21T08:09:47.323Z,6.83
2019-04-21T08:10:27.309Z,9.00
2019-04-21T08:11:10.904Z,8.00
2019-04-21T08:11:48.821Z,6.47
2019-04-21T08:12:31.958Z,8.47
2019-04-21T08:13:25.179Z,7.20
2019-04-21T08:13:57.352Z,7.83
2019-04-21T08:14:35.518Z,6.97
2019-04-21T08:15:24.977Z,7.40
2019-04-21T08:15:59.559Z,7.47
2019-04-21T08:16:42.125Z,7.90
2019-04-21T08:17:16.627Z,8.57
2019-04-21T08:18:00.927Z,7.90
2019-04-21T08:18:44.166Z,8.10
2019-04-21T08:19:25.097Z,7.30
2019-04-21T08:20:00.589Z,8.43
2019-04-21T08:20:46.276Z,6.87
2019-04-21T08:21:29.933Z,8.00
2019-04-21T08:22:11.016Z,8.30
2019-04-21T08:24:07.707Z,7.80
2019-04-21T08:24:51.850Z,7.80
2019-04-21T08:25:30.812Z,7.67
2019-04-21T08:26:09.242Z,8.20
2019-04-21T08:26:51.757Z,8.63
2019-04-21T08:27:41.712Z,7.47
2019-04-21T08:28:08.984Z,8.07
2019-04-21T08:29:01.049Z,6.87
2019-04-21T08:29:47.684Z,7.47
2019-04-21T08:30:22.650Z,7.87
2019-04-21T08:31:01.859Z,7.70
2019-04-21T08:31:53.018Z,7.00
2019-04-21T08:32:28.091Z,8.63
2019-04-21T08:33:08.652Z,8.30
2019-04-21T08:33:47.125Z,7.23
2019-04-21T08:35:20.765Z,8.23
2019-04-21T08:36:11.233Z,8.27
2019-04-21T08:36:28.449Z,7.35
2019-04-21T08:37:04.223Z,7.50
2019-04-21T08:37:46.575Z,7.90
2019-04-21T08:38:28.681Z,7.17
2019-04-21T08:39:07.258Z,8.00
2019-04-21T08:39:58.083Z,7.23
2019-04-21T08:40:40.912Z,8.47
2019-04-21T08:41:12.263Z,7.47
2019-04-21T08:41:59.793Z,7.33
2019-04-21T08:42:40.011Z,7.60
2019-04-21T08:43:21.665Z,8.30
2019-04-21T08:43:58.984Z,8.40
2019-04-21T08:44:49.363Z,7.73
2019-04-21T08:46:05.409Z,7.20
2019-04-21T08:46:49.098Z,8.00
2019-04-21T08:47:25.723Z,8.80
2019-04-21T08:48:05.899Z,6.53
2019-04-21T08:48:43.952Z,7.97
2019-04-21T08:49:26.751Z,7.70
2019-04-21T08:50:08.456Z,8.37
2019-04-21T08:50:53.938Z,8.50
2019-04-21T08:52:11.715Z,7.43
2019-04-21T08:52:56.182Z,7.40
2019-04-21T08:53:49.173Z,8.30
2019-04-21T08:54:09.471Z,7.57
2019-04-21T08:54:55.755Z,7.73
2019-04-21T08:56:13.575Z,7.73
2019-04-21T08:57:10.024Z,6.60
2019-04-21T08:58:08.415Z,7.90
2019-04-21T08:59:03.776Z,7.90
2019-04-21T08:59:58.652Z,7.83
2019-04-21T09:00:51.470Z,7.87
2019-04-21T09:01:53.234Z,8.40
2019-04-21T09:02:44.179Z,7.90
2019-04-21T09:03:36.049Z,7.93
2019-04-21T09:04:19.826Z,8.07
2019-04-21T09:05:03.114Z,7.20
2019-04-21T09:05:46.244Z,7.70
2019-04-21T09:07:49.297Z,8.00
2019-04-21T09:08:27.908Z,7.43
2019-04-21T09:09:11.812Z,7.63
2019-04-21T09:09:54.800Z,7.53
2019-04-21T09:10:34.818Z,8.77
2019-04-21T09:11:16.265Z,8.00
2019-04-21T09:12:01.688Z,7.77
2019-04-21T09:12:46.434Z,8.73
2019-04-21T09:13:24.845Z,7.70
2019-04-21T09:14:15.908Z,7.97
2019-04-21T09:14:57.548Z,7.40
2019-04-21T09:15:30.959Z,7.63
2019-04-21T09:16:08.506Z,7.93
2019-04-21T09:16:53.397Z,7.23
2019-04-21T09:17:33.047Z,8.17
2019-04-21T09:18:21.458Z,8.00
2019-04-21T09:18:59.768Z,7.67
2019-04-21T09:20:32.722Z,8.27
2019-04-21T09:21:14.932Z,7.63
2019-04-21T09:21:54.570Z,7.13
2019-04-21T09:22:45.714Z,8.63
2019-04-21T09:23:39.139Z,8.27
2019-04-21T09:24:24.613Z,8.17
2019-04-21T09:25:03.956Z,8.33
2019-04-21T09:25:49.514Z,7.50
2019-04-21T09:26:28.307Z,8.60
2019-04-21T09:27:03.770Z,7.20
2019-04-21T09:27:53.697Z,7.40
2019-04-21T09:28:25.702Z,8.57
2019-04-21T09:29:04.258Z,7.80
2019-04-21T09:29:39.386Z,8.40
2019-04-21T09:30:13.321Z,8.40
2019-04-21T09:30:57.339Z,8.53
2019-04-21T09:31:39.730Z,8.77
2019-04-21T09:32:23.871Z,8.20
2019-04-21T09:33:05.195Z,8.90
2019-04-21T09:33:48.768Z,8.00
2019-04-21T09:34:30.557Z,7.70
2019-04-21T09:35:10.291Z,7.77
2019-04-21T09:35:54.610Z,8.47
2019-04-21T09:36:54.444Z,7.13
2019-04-21T09:37:40.913Z,8.43
2019-04-21T09:38:19.381Z,8.77
2019-04-21T09:39:00.047Z,8.33
2019-04-21T09:39:43.315Z,9.17
2019-04-21T09:40:16.898Z,8.47
2019-04-21T09:40:58.337Z,8.13
2019-04-21T09:41:39.787Z,8.60
2019-04-21T09:42:21.529Z,7.90
2019-04-21T09:43:10.307Z,8.40
2019-04-21T09:43:51.833Z,8.43
2019-04-21T09:44:31.526Z,9.40
2019-04-21T09:45:10.545Z,8.03
2019-04-21T09:45:49.699Z,8.60
2019-04-21T09:46:41.775Z,8.57
2019-04-21T09:47:22.971Z,8.87
2019-04-21T09:48:04.486Z,7.83
2019-04-21T09:48:51.252Z,6.90
2019-04-21T09:49:22.568Z,8.47
2019-04-21T09:49:58.551Z,7.67
2019-04-21T09:50:38.287Z,8.87
2019-04-21T09:51:17.841Z,8.17
2019-04-21T09:52:02.070Z,9.33
2019-04-21T09:52:48.838Z,7.80
2019-04-21T09:53:36.437Z,8.40
2019-04-21T09:54:20.374Z,7.70
2019-04-21T09:55:03.937Z,9.13
2019-04-21T09:55:43.975Z,8.10
2019-04-21T09:56:19.834Z,9.47
2019-04-21T09:57:02.877Z,8.53
2019-04-21T09:57:43.288Z,8.37
2019-04-21T09:58:26.354Z,8.33
2019-04-21T09:59:10.119Z,8.60
2019-04-21T09:59:53.881Z,8.23
2019-04-21T10:00:30.386Z,8.27
2019-04-21T10:01:19.527Z,7.57
2019-04-21T10:01:59.251Z,9.90
2019-04-21T10:02:40.243Z,8.23
2019-04-21T10:03:15.691Z,8.30
2019-04-21T10:04:05.674Z,7.43
2019-04-21T10:04:44.100Z,8.63
2019-04-21T10:05:25.159Z,8.20
2019-04-21T10:06:04.438Z,7.63
2019-04-21T10:06:56.257Z,9.00
2019-04-21T10:07:39.148Z,9.17
2019-04-21T10:08:17.125Z,8.10
2019-04-21T10:08:58.549Z,7.60
2019-04-21T10:09:43.680Z,9.07
2019-04-21T10:10:22.934Z,8.50
2019-04-21T10:11:05.374Z,10.00
2019-04-21T10:11:48.143Z,9.80
2019-04-21T10:12:26.181Z,9.57
2019-04-21T10:13:25.419Z,9.67
2019-04-21T10:14:05.564Z,8.73
2019-04-21T10:14:45.200Z,10.27
2019-04-21T10:15:25.013Z,10.80
2019-04-21T10:16:34.287Z,11.37
2019-04-21T10:17:30.689Z,10.07
2019-04-21T10:18:13.055Z,12.13
2019-04-21T10:18:52.369Z,11.47
2019-04-21T10:19:31.628Z,11.00
2019-04-21T10:20:11.826Z,10.90
2019-04-21T10:20:53.077Z,11.10
2019-04-21T10:21:34.144Z,10.10
2019-04-21T10:22:12.640Z,11.23
2019-04-21T10:22:53.491Z,9.43
2019-04-21T10:23:31.612Z,11.53
2019-04-21T10:24:14.051Z,9.60
2019-04-21T10:24:52.243Z,10.60
2019-04-21T10:25:30.681Z,10.60
2019-04-21T10:26:10.519Z,9.80
2019-04-21T10:26:53.480Z,9.83
2019-04-21T10:27:36.859Z,11.33
2019-04-21T10:28:15.119Z,11.10
2019-04-21T10:28:53.115Z,9.80
2019-04-21T10:29:34.872Z,10.50
2019-04-21T10:30:14.154Z,9.47
2019-04-21T10:30:52.872Z,11.80
2019-04-21T10:31:32.893Z,10.20
2019-04-21T10:32:13.888Z,11.17
2019-04-21T10:32:52.439Z,10.50